Time;durP1;ratioP1;P1;durP2;ratioP2;P2;SDS_P1;SDS_P2;PMS_P1;PMS_P2;Temp;Humidity;BMP_temperature;BMP_pressure;BME280_temperature;BME280_humidity;BME280_pressure;Samples;Min_cycle;Max_cycle;Signal;HPM_P1;HPM_P2
2022/04/06 00:00:48;;;;;;;24.02;8.15;;;;;;;8.59;92.27;100438.63;5031154;28;20123;-82
2022/04/06 00:03:13;;;;;;;30.05;8.63;;;;;;;8.58;91.89;100443.03;5030990;28;20044;-82
2022/04/06 00:05:39;;;;;;;28.30;8.70;;;;;;;8.58;91.76;100442.13;5031010;28;20041;-82
2022/04/06 00:08:05;;;;;;;27.75;7.70;;;;;;;8.54;92.31;100446.63;5030604;28;20041;-82
2022/04/06 00:10:31;;;;;;;30.50;7.75;;;;;;;8.56;91.92;100428.97;5035176;28;20116;-82
2022/04/06 00:12:58;;;;;;;23.17;7.65;;;;;;;8.55;91.98;100437.78;5030684;28;20108;-82
2022/04/06 00:15:24;;;;;;;27.13;7.68;;;;;;;8.54;91.83;100430.78;5014290;28;20121;-82
2022/04/06 00:17:50;;;;;;;19.23;7.82;;;;;;;8.56;91.81;100428.13;4998031;28;20179;-82
2022/04/06 00:20:16;;;;;;;25.73;8.40;;;;;;;8.58;91.92;100427.19;5030897;28;20037;-82
2022/04/06 00:22:42;;;;;;;29.13;8.45;;;;;;;8.54;91.26;100429.91;5014118;28;20111;-82
2022/04/06 00:25:08;;;;;;;19.42;6.95;;;;;;;8.57;91.35;100433.34;5030847;28;20405;-82
2022/04/06 00:27:34;;;;;;;23.02;7.10;;;;;;;8.54;91.88;100427.28;5042373;28;20079;-82
2022/04/06 00:30:00;;;;;;;27.92;6.60;;;;;;;8.49;92.09;100422.09;5034094;28;20041;-82
2022/04/06 00:32:26;;;;;;;24.75;8.35;;;;;;;8.47;91.81;100423.88;5033657;28;20056;-81
2022/04/06 00:37:36;;;;;;;30.40;8.07;;;;;;;8.51;91.18;100415.00;5050796;28;20067;-82
2022/04/06 00:40:03;;;;;;;18.40;5.88;;;;;;;8.50;91.07;100412.41;5050615;28;20473;-82
2022/04/06 00:42:28;;;;;;;29.52;7.75;;;;;;;8.47;91.61;100412.47;5050247;28;20037;-82
2022/04/06 00:44:54;;;;;;;27.55;7.60;;;;;;;8.46;91.81;100408.97;5017393;28;20056;-82
2022/04/06 00:47:19;;;;;;;29.92;7.45;;;;;;;8.46;91.16;100411.59;5049977;28;20032;-82
2022/04/06 00:49:45;;;;;;;22.13;6.97;;;;;;;8.40;92.07;100409.06;5051791;28;20039;-82
2022/04/06 00:52:11;;;;;;;24.90;6.60;;;;;;;8.42;91.98;100416.97;5017234;28;20044;-82
2022/04/06 00:54:37;;;;;;;27.80;7.30;;;;;;;8.45;91.17;100409.84;5049979;28;20481;-82
2022/04/06 00:57:03;;;;;;;26.20;7.65;;;;;;;8.42;91.48;100404.63;5033514;28;20071;-82
2022/04/06 00:59:30;;;;;;;34.03;7.32;;;;;;;8.39;91.83;100410.84;5050031;28;20115;-82
2022/04/06 01:01:58;;;;;;;25.70;6.68;;;;;;;8.39;91.95;100407.31;5033618;28;20043;-82
2022/04/06 01:04:24;;;;;;;24.15;6.05;;;;;;;8.41;91.69;100397.63;5033502;28;20448;-82
2022/04/06 01:06:51;;;;;;;23.45;6.97;;;;;;;8.40;91.01;100399.38;5050235;28;20025;-82
2022/04/06 01:09:18;;;;;;;24.20;6.15;;;;;;;8.39;91.80;100399.41;5032020;28;20179;-82
2022/04/06 01:11:45;;;;;;;19.13;5.57;;;;;;;8.46;91.17;100398.41;5029876;28;20503;-82
2022/04/06 01:14:12;;;;;;;17.92;6.40;;;;;;;8.46;91.02;100390.50;5032129;28;20133;-82
2022/04/06 01:16:38;;;;;;;29.80;6.72;;;;;;;8.42;90.90;100394.09;5033399;28;20040;-82
2022/04/06 01:19:03;;;;;;;21.02;6.55;;;;;;;8.39;90.72;100388.84;5051013;28;20040;-82
2022/04/06 01:21:29;;;;;;;20.75;5.65;;;;;;;8.39;91.09;100394.13;5049846;28;20426;-82
2022/04/06 01:23:55;;;;;;;20.80;5.78;;;;;;;8.35;90.61;100380.09;5033179;28;20090;-82
2022/04/06 01:26:21;;;;;;;25.80;6.07;;;;;;;8.34;90.74;100380.16;5048713;28;20033;-82
2022/04/06 01:28:46;;;;;;;23.13;5.35;;;;;;;8.46;90.06;100382.56;5013297;28;20116;-82
2022/04/06 01:31:12;;;;;;;21.88;6.00;;;;;;;8.38;90.90;100385.34;5029759;28;20049;-82
2022/04/06 01:33:37;;;;;;;26.67;5.88;;;;;;;8.40;90.24;100385.31;5030929;28;20064;-83
2022/04/06 01:36:04;;;;;;;20.35;5.75;;;;;;;8.33;90.75;100375.75;5029649;28;20039;-82
2022/04/06 01:38:29;;;;;;;17.90;4.85;;;;;;;8.33;90.11;100376.66;5012371;28;20052;-82
2022/04/06 01:40:55;;;;;;;18.90;5.65;;;;;;;8.35;90.13;100369.53;5029055;28;20057;-82
2022/04/06 01:43:21;;;;;;;28.45;6.55;;;;;;;8.31;90.72;100378.44;5012950;28;20044;-82
2022/04/06 01:45:47;;;;;;;24.88;6.00;;;;;;;8.35;90.30;100377.47;5013365;28;20091;-82
2022/04/06 01:48:16;;;;;;;19.33;5.45;;;;;;;8.39;89.63;100375.66;5012889;28;20034;-82
2022/04/06 01:53:28;;;;;;;21.95;5.47;;;;;;;8.27;90.02;100375.91;5029519;28;20043;-82
2022/04/06 01:55:54;;;;;;;22.80;5.50;;;;;;;8.26;89.83;100374.13;5030449;28;20029;-82
2022/04/06 01:58:21;;;;;;;26.67;5.97;;;;;;;8.26;89.77;100371.50;5029092;28;20041;-82
2022/04/06 02:00:47;;;;;;;22.17;5.50;;;;;;;8.26;89.65;100371.50;5029264;28;20517;-82
2022/04/06 02:03:13;;;;;;;23.52;5.80;;;;;;;8.33;89.44;100367.84;5029171;28;20449;-82
2022/04/06 02:05:39;;;;;;;28.08;4.97;;;;;;;8.26;89.67;100371.50;5012917;28;20029;-82
2022/04/06 02:08:04;;;;;;;22.98;5.57;;;;;;;8.26;89.59;100366.22;5011988;28;20042;-82
2022/04/06 02:10:30;;;;;;;23.80;4.88;;;;;;;8.25;88.93;100367.13;5037730;28;20090;-82
2022/04/06 02:12:58;;;;;;;16.92;5.10;;;;;;;8.22;89.04;100364.56;5048830;28;20415;-81
2022/04/06 02:15:25;;;;;;;21.48;5.60;;;;;;;8.23;89.71;100361.88;5028801;28;20033;-82
2022/04/06 02:17:51;;;;;;;22.08;4.65;;;;;;;8.18;89.28;100354.09;5029046;28;20401;-82
2022/04/06 02:20:17;;;;;;;18.63;4.82;;;;;;;8.19;89.13;100352.31;5012957;28;20034;-82
2022/04/06 02:22:43;;;;;;;17.83;4.43;;;;;;;8.24;88.47;100361.00;5030181;28;20095;-82
2022/04/06 02:25:10;;;;;;;20.27;4.95;;;;;;;8.28;88.04;100351.25;5029333;28;20123;-82
2022/04/06 02:27:47;;;;;;;16.67;4.63;;;;;;;8.22;88.82;100361.94;5016019;28;20497;-82
2022/04/06 02:30:13;;;;;;;20.40;5.07;;;;;;;8.20;88.07;100354.03;5049384;28;20074;-82
2022/04/06 02:32:40;;;;;;;15.00;3.85;;;;;;;8.23;87.70;100353.97;5049239;28;20209;-83
2022/04/06 02:35:06;;;;;;;26.85;4.90;;;;;;;8.15;87.77;100346.22;5050273;28;20033;-82
2022/04/06 02:37:31;;;;;;;16.17;3.90;;;;;;;8.15;87.79;100343.56;5032646;28;20638;-82
2022/04/06 02:39:57;;;;;;;16.25;4.38;;;;;;;8.15;87.82;100353.25;5032339;28;20045;-82
2022/04/06 02:42:22;;;;;;;16.83;3.92;;;;;;;8.12;87.82;100342.78;5012792;28;20696;-82
2022/04/06 02:44:47;;;;;;;26.42;5.10;;;;;;;8.10;87.45;100334.88;5029486;28;20018;-81
2022/04/06 02:47:13;;;;;;;23.63;5.15;;;;;;;8.10;87.66;100340.16;5029037;28;20220;-82
2022/04/06 02:49:38;;;;;;;16.58;4.18;;;;;;;8.10;87.97;100342.78;5030461;28;20397;-82
2022/04/06 02:52:04;;;;;;;20.60;4.25;;;;;;;8.11;87.67;100338.38;5016065;28;20041;-82
2022/04/06 02:54:30;;;;;;;17.75;4.53;;;;;;;8.05;86.97;100336.75;5033397;28;20504;-82
2022/04/06 02:56:55;;;;;;;17.55;4.10;;;;;;;8.04;87.71;100336.78;5016476;28;20083;-82
2022/04/06 02:59:21;;;;;;;21.38;5.63;;;;;;;8.00;87.70;100332.47;4983851;28;20056;-82
2022/04/06 03:01:46;;;;;;;15.73;4.15;;;;;;;7.99;87.31;100328.97;5034027;28;20037;-82
2022/04/06 03:04:12;;;;;;;13.27;3.33;;;;;;;7.98;86.57;100328.06;5015956;28;20077;-82
2022/04/06 03:06:37;;;;;;;21.67;4.35;;;;;;;7.94;86.84;100328.19;5033177;28;20037;-81
2022/04/06 03:09:03;;;;;;;18.20;4.22;;;;;;;7.92;86.88;100335.25;5036549;28;20025;-82
2022/04/06 03:11:29;;;;;;;16.67;4.38;;;;;;;7.95;86.90;100328.13;5041326;28;20084;-81
2022/04/06 03:13:55;;;;;;;19.20;3.47;;;;;;;7.97;86.02;100314.94;4999549;28;20636;-82
2022/04/06 03:16:20;;;;;;;14.23;4.20;;;;;;;7.89;87.25;100314.22;5053037;28;20052;-82
2022/04/06 03:18:46;;;;;;;15.52;3.92;;;;;;;7.85;87.22;100313.41;5035777;28;20375;-81
2022/04/06 03:21:11;;;;;;;16.60;4.10;;;;;;;7.85;86.49;100308.13;5035888;28;20074;-81
2022/04/06 03:23:37;;;;;;;13.23;3.50;;;;;;;7.84;87.19;100308.16;5053243;28;20101;-81
2022/04/06 03:26:02;;;;;;;14.07;4.20;;;;;;;7.84;86.33;100300.25;5035804;28;20044;-81
2022/04/06 03:28:28;;;;;;;16.63;3.70;;;;;;;7.84;85.80;100303.78;5031953;28;20485;-81
2022/04/06 03:30:53;;;;;;;17.80;3.85;;;;;;;7.80;86.31;100295.94;4983476;28;20040;-81
2022/04/06 03:33:19;;;;;;;12.05;3.30;;;;;;;7.79;86.60;100287.19;5031823;28;20044;-81
2022/04/06 03:35:44;;;;;;;21.65;4.25;;;;;;;7.81;85.88;100285.34;5015479;28;20038;-82
2022/04/06 03:38:10;;;;;;;15.20;3.72;;;;;;;7.80;85.88;100288.03;4999222;28;20060;-81
2022/04/06 03:40:35;;;;;;;15.35;3.92;;;;;;;7.79;85.56;100281.00;4984977;28;20045;-81
2022/04/06 03:43:01;;;;;;;17.83;3.70;;;;;;;7.76;85.17;100281.94;5015260;28;20048;-81
2022/04/06 03:45:26;;;;;;;16.08;3.15;;;;;;;7.78;85.25;100276.66;5031908;28;20365;-81
2022/04/06 03:47:52;;;;;;;14.43;3.88;;;;;;;7.78;85.21;100276.66;5015534;28;20026;-81
2022/04/06 03:50:17;;;;;;;15.70;4.22;;;;;;;7.74;84.86;100283.75;5032118;28;20053;-81
2022/04/06 03:52:43;;;;;;;12.23;3.45;;;;;;;7.74;85.31;100278.50;5031811;28;20076;-81
2022/04/06 03:55:09;;;;;;;16.77;3.28;;;;;;;7.75;85.11;100274.94;5015135;28;20025;-81
2022/04/06 03:57:35;;;;;;;18.70;3.78;;;;;;;7.77;84.64;100274.91;5031480;28;20042;-81
2022/04/06 04:00:07;;;;;;;14.70;3.72;;;;;;;7.74;84.47;100281.13;5015428;28;20041;-81
2022/04/06 04:02:35;;;;;;;18.23;4.68;;;;;;;7.73;84.58;100274.97;5030986;28;20170;-80
2022/04/06 04:05:01;;;;;;;14.77;4.82;;;;;;;7.74;84.26;100284.63;5031816;28;20137;-81
2022/04/06 04:07:27;;;;;;;17.23;5.28;;;;;;;7.72;83.89;100282.91;5031553;28;20048;-81
2022/04/06 04:09:52;;;;;;;17.60;3.42;;;;;;;7.73;84.05;100276.72;5043292;28;20036;-80
2022/04/06 04:12:18;;;;;;;14.88;3.28;;;;;;;7.71;83.29;100287.28;5031881;28;20037;-81
2022/04/06 04:14:45;;;;;;;13.77;3.45;;;;;;;7.71;83.55;100279.38;5037613;28;20421;-81
2022/04/06 04:17:11;;;;;;;18.02;3.45;;;;;;;7.75;82.88;100273.16;5052582;28;20044;-81
2022/04/06 04:19:37;;;;;;;16.55;2.75;;;;;;;7.75;82.13;100270.53;5034666;28;20032;-81
2022/04/06 04:22:02;;;;;;;16.83;3.55;;;;;;;7.77;82.39;100275.78;5034551;28;20044;-80
2022/04/06 04:24:28;;;;;;;14.80;3.08;;;;;;;7.75;82.60;100273.16;5051308;28;20127;-81
2022/04/06 04:26:54;;;;;;;12.38;3.35;;;;;;;7.74;82.44;100266.16;5034638;28;20132;-81
2022/04/06 04:29:19;;;;;;;14.63;3.45;;;;;;;7.76;82.10;100268.75;5051086;28;20128;-81
2022/04/06 04:31:46;;;;;;;12.85;3.53;;;;;;;7.74;82.15;100263.53;5051367;28;20087;-81
2022/04/06 04:34:11;;;;;;;8.93;2.83;;;;;;;7.80;81.84;100272.22;5034118;28;20029;-80
2022/04/06 04:36:37;;;;;;;15.45;3.53;;;;;;;7.75;82.14;100267.91;5052085;28;20037;-80
2022/04/06 04:39:03;;;;;;;18.30;4.05;;;;;;;7.73;82.26;100261.78;5033692;28;20037;-80
2022/04/06 04:41:29;;;;;;;10.32;2.65;;;;;;;7.83;82.00;100262.47;5051677;28;20112;-80
2022/04/06 04:43:54;;;;;;;16.38;3.60;;;;;;;7.82;82.27;100258.09;5017303;28;20029;-80
2022/04/06 04:46:20;;;;;;;9.88;2.97;;;;;;;7.80;82.57;100257.25;5050476;28;20055;-80
2022/04/06 04:48:46;;;;;;;13.32;4.20;;;;;;;7.81;82.80;100260.75;5050323;28;20390;-80
2022/04/06 04:51:12;;;;;;;19.02;3.85;;;;;;;7.79;82.86;100252.91;5033649;28;20115;-80
2022/04/06 04:53:38;;;;;;;13.65;3.83;;;;;;;7.80;83.10;100245.84;5050239;28;20037;-80
2022/04/06 04:56:04;;;;;;;18.58;3.85;;;;;;;7.78;83.61;100242.38;5033439;28;20048;-80
2022/04/06 04:58:29;;;;;;;16.77;3.80;;;;;;;7.83;83.66;100245.78;5033552;28;20069;-80
2022/04/06 05:00:55;;;;;;;22.58;4.47;;;;;;;7.81;84.18;100242.31;5051458;28;20021;-80
2022/04/06 05:03:21;;;;;;;15.43;3.85;;;;;;;7.82;83.99;100250.19;5049949;28;20452;-80
2022/04/06 05:05:50;;;;;;;14.93;4.13;;;;;;;7.82;84.00;100239.66;5033401;28;20033;-80
2022/04/06 05:08:15;;;;;;;18.08;5.22;;;;;;;7.83;84.46;100237.88;5031029;28;20876;-80
2022/04/06 05:10:41;;;;;;;19.77;4.13;;;;;;;7.83;84.76;100237.88;5040173;28;20116;-80
2022/04/06 05:13:06;;;;;;;19.63;4.38;;;;;;;7.83;84.87;100232.63;5051301;28;20060;-80
2022/04/06 05:15:32;;;;;;;15.60;3.85;;;;;;;7.84;85.17;100234.34;5020486;28;20041;-80
2022/04/06 05:17:58;;;;;;;21.77;6.38;;;;;;;7.89;84.35;100220.19;5031269;28;20037;-80
2022/04/06 05:20:23;;;;;;;18.42;5.10;;;;;;;7.91;84.78;100233.31;5030022;28;20030;-80
2022/04/06 05:22:49;;;;;;;24.55;5.50;;;;;;;7.90;85.17;100227.19;5013240;28;20033;-80
2022/04/06 05:25:14;;;;;;;18.80;4.82;;;;;;;7.90;84.76;100229.81;5029613;28;20077;-80
2022/04/06 05:27:50;;;;;;;21.40;5.25;;;;;;;7.89;85.48;100230.72;5025802;28;20044;-80
2022/04/06 05:30:17;;;;;;;23.05;5.82;;;;;;;7.90;85.17;100227.19;5049208;28;20041;-80
2022/04/06 05:32:44;;;;;;;23.00;5.28;;;;;;;7.90;85.07;100224.53;5049580;28;20020;-81
2022/04/06 05:35:11;;;;;;;22.73;5.07;;;;;;;7.94;85.00;100212.19;5032837;28;20052;-80
2022/04/06 05:37:38;;;;;;;22.48;5.78;;;;;;;7.97;85.37;100218.25;5050976;28;20039;-81
2022/04/06 05:40:05;;;;;;;22.48;4.72;;;;;;;7.95;84.72;100214.75;5048076;28;20044;-81
2022/04/06 05:42:31;;;;;;;21.27;4.55;;;;;;;7.97;84.74;100210.34;5030925;28;20398;-80
2022/04/06 05:44:57;;;;;;;19.40;5.57;;;;;;;7.96;84.56;100218.25;5013048;28;20389;-81
2022/04/06 05:47:23;;;;;;;16.50;4.57;;;;;;;8.04;84.37;100215.50;5030713;28;20038;-81
2022/04/06 05:49:48;;;;;;;12.20;3.90;;;;;;;7.97;84.35;100212.97;5029698;28;20060;-79
2022/04/06 05:52:14;;;;;;;14.93;4.32;;;;;;;7.98;83.75;100219.97;5029290;28;20026;-81
2022/04/06 05:54:39;;;;;;;13.73;3.38;;;;;;;8.04;82.91;100212.84;5030789;28;20034;-81
2022/04/06 05:57:05;;;;;;;14.82;3.28;;;;;;;8.18;81.90;100216.03;5028647;28;20147;-81
2022/04/06 05:59:30;;;;;;;13.93;3.35;;;;;;;8.13;82.17;100216.13;5013166;28;20041;-80
2022/04/06 06:01:56;;;;;;;17.50;3.90;;;;;;;8.05;82.62;100226.00;5028626;28;20052;-80
2022/04/06 06:04:21;;;;;;;15.38;3.22;;;;;;;8.07;82.91;100220.69;5028956;28;20060;-81
2022/04/06 06:06:48;;;;;;;8.00;2.90;;;;;;;8.11;81.87;100225.88;5029471;28;20038;-81
2022/04/06 06:09:13;;;;;;;14.40;3.60;;;;;;;8.08;81.59;100220.63;5019000;28;20041;-81
2022/04/06 06:11:39;;;;;;;12.93;2.83;;;;;;;8.09;81.99;100221.53;5034232;28;20095;-80
2022/04/06 06:14:05;;;;;;;11.43;2.92;;;;;;;8.11;81.22;100217.06;5040863;28;20025;-81
2022/04/06 06:16:31;;;;;;;15.07;2.92;;;;;;;8.08;81.78;100218.00;5028464;28;20101;-81
2022/04/06 06:18:56;;;;;;;17.60;3.17;;;;;;;8.17;80.89;100224.88;5012108;28;20392;-81
2022/04/06 06:21:22;;;;;;;16.90;3.35;;;;;;;8.14;80.65;100223.16;5011884;28;20113;-81
2022/04/06 06:23:48;;;;;;;13.00;3.25;;;;;;;8.17;80.07;100231.00;5028666;28;20120;-81
2022/04/06 06:26:13;;;;;;;16.20;2.72;;;;;;;8.20;78.60;100224.78;5014264;28;20142;-81
2022/04/06 06:28:40;;;;;;;13.45;2.67;;;;;;;8.14;79.24;100220.53;5015889;28;20342;-81
2022/04/06 06:31:06;;;;;;;11.55;2.85;;;;;;;8.23;78.16;100223.84;5032162;28;20045;-81
2022/04/06 06:33:31;;;;;;;9.07;2.63;;;;;;;8.25;77.44;100216.78;5015928;28;20056;-81
2022/04/06 06:35:57;;;;;;;8.70;2.42;;;;;;;8.25;76.76;100212.38;5033982;28;20022;-82
2022/04/06 06:38:22;;;;;;;8.70;2.40;;;;;;;8.26;75.43;100207.94;5032270;28;20323;-81
2022/04/06 06:40:48;;;;;;;11.45;2.20;;;;;;;8.24;74.89;100215.06;5038997;28;20076;-82
2022/04/06 06:43:15;;;;;;;11.73;2.40;;;;;;;8.21;75.86;100208.06;5053393;28;20208;-81
2022/04/06 06:45:41;;;;;;;7.55;2.08;;;;;;;8.27;74.86;100207.06;5035749;28;20400;-81
2022/04/06 06:48:07;;;;;;;10.63;3.13;;;;;;;8.31;73.15;100203.47;5051917;28;20044;-81
2022/04/06 06:50:32;;;;;;;7.22;2.40;;;;;;;8.34;73.07;100204.25;5052000;28;20052;-81
2022/04/06 06:52:58;;;;;;;12.57;2.80;;;;;;;8.30;73.79;100199.06;5035178;28;20029;-78
2022/04/06 06:55:23;;;;;;;6.75;2.10;;;;;;;8.33;73.28;100207.81;5035259;28;20065;-79
2022/04/06 06:57:49;;;;;;;10.68;2.50;;;;;;;8.33;73.32;100204.28;5051349;28;20151;-78
2022/04/06 07:00:15;;;;;;;3.90;1.67;;;;;;;8.43;72.48;100207.59;5052000;28;20123;-78
2022/04/06 07:02:41;;;;;;;7.93;1.77;;;;;;;8.35;72.83;100205.13;5051306;28;20365;-78
2022/04/06 07:05:08;;;;;;;12.68;3.00;;;;;;;8.35;72.93;100208.63;5034902;28;20039;-78
2022/04/06 07:07:55;;;;;;;14.25;2.60;;;;;;;8.37;73.27;100205.94;5051059;28;20033;-78
2022/04/06 07:10:22;;;;;;;14.20;2.72;;;;;;;8.41;72.27;100205.03;5035452;28;20037;-77
2022/04/06 07:12:48;;;;;;;11.10;2.10;;;;;;;8.43;72.63;100202.31;5031298;28;20035;-78
2022/04/06 07:15:14;;;;;;;10.77;2.92;;;;;;;8.40;72.27;100200.63;5025595;28;20357;-77
2022/04/06 07:17:40;;;;;;;12.80;2.30;;;;;;;8.43;72.36;100200.56;5051178;28;20033;-78
2022/04/06 07:20:06;;;;;;;12.85;2.53;;;;;;;8.48;72.40;100193.44;5050979;28;20076;-77
2022/04/06 07:22:32;;;;;;;11.63;2.75;;;;;;;8.52;71.36;100196.84;5051003;28;20029;-78
2022/04/06 07:24:57;;;;;;;6.97;1.58;;;;;;;8.51;71.23;100195.97;5034575;28;20095;-78
2022/04/06 07:27:23;;;;;;;7.40;1.88;;;;;;;8.51;70.86;100188.06;5030861;28;20049;-79
2022/04/06 07:29:48;;;;;;;5.63;1.50;;;;;;;8.55;71.69;100188.84;4982166;28;20033;-78
2022/04/06 07:32:14;;;;;;;9.00;1.90;;;;;;;8.54;72.09;100180.06;5030888;28;20115;-78
2022/04/06 07:34:39;;;;;;;11.38;2.00;;;;;;;8.57;71.57;100173.84;5032054;28;20192;-77
2022/04/06 07:37:05;;;;;;;8.60;2.10;;;;;;;8.55;71.81;100171.22;5029665;28;20050;-78
2022/04/06 07:39:30;;;;;;;9.40;2.17;;;;;;;8.58;72.01;100165.91;5030933;28;20578;-78
2022/04/06 07:41:56;;;;;;;6.22;1.95;;;;;;;8.59;71.84;100166.75;5047067;28;20496;-77
2022/04/06 07:44:23;;;;;;;7.28;1.95;;;;;;;8.69;71.56;100172.69;5034153;28;20044;-78
2022/04/06 07:46:48;;;;;;;11.15;2.90;;;;;;;8.67;72.47;100162.16;5050852;28;20619;-78
2022/04/06 07:49:14;;;;;;;7.03;1.98;;;;;;;8.69;72.25;100151.56;5050695;28;20037;-78
2022/04/06 07:51:39;;;;;;;12.00;2.67;;;;;;;8.81;72.62;100154.75;5050614;28;20040;-78
2022/04/06 07:54:05;;;;;;;6.10;2.00;;;;;;;8.92;72.55;100153.59;5050567;28;20051;-77
2022/04/06 07:56:30;;;;;;;9.63;2.33;;;;;;;8.94;73.67;100144.75;5050353;28;20087;-77
2022/04/06 07:58:56;;;;;;;12.35;2.80;;;;;;;8.98;74.07;100154.31;5051918;28;20060;-78
2022/04/06 08:01:21;;;;;;;7.90;2.33;;;;;;;9.01;74.34;100156.03;5033943;28;20082;-77
2022/04/06 08:03:47;;;;;;;8.60;2.67;;;;;;;8.90;75.08;100144.84;5051900;28;20052;-77
2022/04/06 08:06:13;;;;;;;19.10;3.60;;;;;;;8.86;76.00;100143.22;5035071;28;20051;-77
2022/04/06 08:08:38;;;;;;;13.77;2.85;;;;;;;8.84;75.87;100153.81;5033543;28;20445;-77
2022/04/06 08:11:05;;;;;;;11.93;2.70;;;;;;;8.87;75.67;100150.22;5040907;28;20051;-77
2022/04/06 08:13:32;;;;;;;11.52;3.50;;;;;;;8.86;75.99;100148.50;5033520;28;20445;-77
2022/04/06 08:15:58;;;;;;;11.57;3.05;;;;;;;8.92;74.90;100150.97;5030303;28;20048;-78
2022/04/06 08:18:24;;;;;;;13.77;2.88;;;;;;;8.80;76.08;100150.41;5030425;28;20022;-78
2022/04/06 08:20:49;;;;;;;10.25;2.83;;;;;;;8.75;77.40;100159.31;4997824;28;20034;-77
2022/04/06 08:23:17;;;;;;;16.20;3.42;;;;;;;8.76;77.11;100169.84;5030446;28;20049;-77
2022/04/06 08:25:43;;;;;;;11.90;3.38;;;;;;;8.81;76.84;100152.13;5014576;28;20075;-77
2022/04/06 08:28:10;;;;;;;11.48;2.60;;;;;;;8.87;76.59;100151.09;5030147;28;20038;-77
2022/04/06 08:30:44;;;;;;;11.52;3.00;;;;;;;8.91;76.45;100150.09;5047139;28;20121;-77
2022/04/06 08:33:10;;;;;;;11.85;3.30;;;;;;;8.93;76.15;100144.81;5014845;28;20065;-78
2022/04/06 08:35:36;;;;;;;8.82;2.90;;;;;;;9.06;75.41;100154.13;5030330;28;20088;-77
2022/04/06 08:38:05;;;;;;;11.48;2.95;;;;;;;8.86;76.86;100153.78;4997429;28;20049;-78
2022/04/06 08:40:32;;;;;;;12.50;3.88;;;;;;;8.86;76.80;100151.16;5031330;28;20064;-78
2022/04/06 08:42:58;;;;;;;20.70;2.95;;;;;;;8.96;75.70;100142.94;5029770;28;20041;-77
2022/04/06 08:45:24;;;;;;;13.10;3.05;;;;;;;8.98;76.00;100138.47;5046896;28;20076;-77
2022/04/06 08:47:51;;;;;;;13.88;3.30;;;;;;;8.99;77.10;100131.41;5029289;28;20413;-78
2022/04/06 08:50:20;;;;;;;11.18;2.97;;;;;;;9.07;76.41;100147.06;5030555;28;20359;-77
2022/04/06 08:52:47;;;;;;;10.23;2.72;;;;;;;9.04;76.06;100138.31;5046098;28;20041;-78
2022/04/06 08:55:15;;;;;;;12.48;2.83;;;;;;;9.07;76.32;100145.28;5031303;28;20188;-77
2022/04/06 08:57:41;;;;;;;11.18;2.88;;;;;;;9.06;76.18;100134.78;5029999;28;20053;-77
2022/04/06 09:00:07;;;;;;;9.48;2.58;;;;;;;8.99;77.20;100141.97;5031368;28;20361;-78
2022/04/06 09:02:33;;;;;;;7.22;2.90;;;;;;;9.04;76.64;100142.72;5029550;28;20508;-78
2022/04/06 09:05:02;;;;;;;10.48;3.03;;;;;;;9.01;77.75;100148.09;5029792;28;20108;-77
2022/04/06 09:07:28;;;;;;;9.10;2.92;;;;;;;8.96;78.29;100145.56;5030732;28;20530;-78
2022/04/06 09:09:55;;;;;;;11.38;3.05;;;;;;;8.94;79.85;100151.81;5036122;28;20092;-77
2022/04/06 09:12:24;;;;;;;13.07;3.53;;;;;;;8.99;80.38;100142.84;5048934;28;20041;-77
2022/04/06 09:15:23;;;;;;;16.17;3.40;;;;;;;8.98;80.68;100140.25;5041334;28;20040;-77
2022/04/06 09:17:49;;;;;;;11.68;2.83;;;;;;;8.96;80.66;100148.22;5014463;28;20092;-77
2022/04/06 09:20:23;;;;;;;10.68;2.97;;;;;;;8.94;82.36;100144.75;5029624;28;20160;-78
2022/04/06 09:22:48;;;;;;;15.75;3.13;;;;;;;8.91;82.42;100136.03;5029361;28;20528;-78
2022/04/06 09:25:16;;;;;;;13.65;3.20;;;;;;;8.89;83.03;100143.13;5013136;28;20061;-78
2022/04/06 09:27:42;;;;;;;8.50;2.67;;;;;;;8.90;82.61;100139.56;5044205;28;20040;-78
2022/04/06 09:30:08;;;;;;;7.57;2.13;;;;;;;8.93;82.65;100136.88;5032778;28;20338;-78
2022/04/06 09:32:34;;;;;;;14.45;3.33;;;;;;;8.92;80.95;100138.63;5050515;28;20033;-78
2022/04/06 09:35:00;;;;;;;11.73;3.10;;;;;;;8.92;82.08;100145.69;5032566;28;20475;-78
2022/04/06 09:37:30;;;;;;;13.00;3.03;;;;;;;8.93;81.13;100137.75;5050593;28;20374;-78
2022/04/06 09:39:58;;;;;;;16.13;3.07;;;;;;;8.91;81.25;100134.25;5049079;28;20452;-78
2022/04/06 09:42:26;;;;;;;10.30;3.15;;;;;;;8.93;81.62;100140.38;5029132;28;20126;-78
2022/04/06 09:47:41;;;;;;;18.25;2.83;;;;;;;8.98;81.56;100137.63;5030683;28;20044;-77
2022/04/06 09:50:22;;;;;;;12.35;3.05;;;;;;;8.91;83.32;100133.41;5029101;28;20449;-78
2022/04/06 09:52:49;;;;;;;7.18;2.20;;;;;;;8.96;82.67;100129.72;5030286;28;20075;-78
2022/04/06 09:55:16;;;;;;;11.85;2.75;;;;;;;8.94;83.26;100135.97;5013101;28;20045;-79
2022/04/06 09:57:51;;;;;;;15.65;3.53;;;;;;;8.91;83.74;100126.34;5029845;28;20053;-78
2022/04/06 10:00:22;;;;;;;8.32;2.65;;;;;;;8.92;83.57;100122.78;5012320;28;20033;-77
2022/04/06 10:03:00;;;;;;;9.98;3.70;;;;;;;8.86;84.48;100120.31;5029184;28;20034;-78
2022/04/06 10:05:28;;;;;;;6.57;2.95;;;;;;;8.90;83.30;100129.91;5029379;28;20038;-83
2022/04/06 10:07:55;;;;;;;12.27;3.13;;;;;;;8.83;84.33;100123.91;5028480;28;20025;-79
2022/04/06 10:10:23;;;;;;;12.38;4.32;;;;;;;8.86;84.01;100127.38;5033099;28;20131;-79
2022/04/06 10:12:49;;;;;;;7.90;2.95;;;;;;;8.84;85.69;100119.50;5029127;28;20045;-79
2022/04/06 10:15:17;;;;;;;10.23;3.25;;;;;;;8.85;85.84;100115.94;5040585;28;20185;-78
2022/04/06 10:17:42;;;;;;;12.75;2.92;;;;;;;8.86;84.77;100128.25;5032378;28;20040;-78
2022/04/06 10:20:19;;;;;;;8.73;3.03;;;;;;;8.84;84.84;100116.84;5049238;28;20342;-79
2022/04/06 10:23:00;;;;;;;11.30;3.13;;;;;;;8.75;85.80;100112.69;5032575;28;20445;-81
2022/04/06 10:25:44;;;;;;;8.30;3.08;;;;;;;8.76;85.87;100122.34;5048701;28;20087;-79
2022/04/06 10:28:12;;;;;;;11.55;3.30;;;;;;;8.72;86.94;100111.88;5031126;28;20115;-80
2022/04/06 10:30:38;;;;;;;11.70;3.25;;;;;;;8.68;86.69;100124.31;5030019;28;20478;-84
2022/04/06 10:33:19;;;;;;;10.88;3.13;;;;;;;8.76;85.74;100118.84;5012121;28;20369;-80
2022/04/06 10:35:45;;;;;;;13.27;3.33;;;;;;;8.73;85.96;100109.22;5030468;28;20025;-81
2022/04/06 10:38:16;;;;;;;16.40;3.70;;;;;;;8.71;86.14;100110.16;5028677;28;20419;-80
2022/04/06 10:40:42;;;;;;;13.77;3.50;;;;;;;8.72;86.93;100112.75;5012292;28;20045;-80
2022/04/06 10:43:36;;;;;;;8.27;3.28;;;;;;;8.91;85.25;100104.34;5028731;28;20033;-77
2022/04/06 10:46:07;;;;;;;13.25;2.90;;;;;;;8.88;85.10;100104.41;5030266;28;20025;-80
2022/04/06 10:48:32;;;;;;;8.55;2.50;;;;;;;8.71;85.48;100103.09;5028794;28;20136;-81
2022/04/06 10:51:28;;;;;;;8.35;2.83;;;;;;;8.69;86.00;100090.84;5029039;28;20108;-81
2022/04/06 10:53:54;;;;;;;8.65;2.92;;;;;;;8.72;85.61;100093.41;5029861;28;20446;-81
2022/04/06 10:56:22;;;;;;;11.90;3.30;;;;;;;8.79;85.58;100095.00;5012328;28;20041;-80
2022/04/06 10:58:56;;;;;;;10.63;3.72;;;;;;;8.82;85.06;100092.25;5030036;28;20108;-78
2022/04/06 11:01:33;;;;;;;8.00;2.70;;;;;;;8.79;84.24;100090.56;5012577;28;20044;-80
2022/04/06 11:04:15;;;;;;;7.65;3.33;;;;;;;8.76;85.17;100082.72;5011950;28;20064;-80
2022/04/06 11:06:40;;;;;;;10.70;3.15;;;;;;;8.83;84.52;100081.66;5030464;28;20434;-81
2022/04/06 11:12:26;;;;;;;8.25;2.70;;;;;;;8.90;84.06;100081.47;5050763;28;20048;-82
2022/04/06 11:14:57;;;;;;;10.75;2.97;;;;;;;8.95;83.43;100084.88;5052343;28;20033;-82
2022/04/06 11:17:35;;;;;;;5.22;2.30;;;;;;;9.08;82.63;100077.50;5052026;28;20108;-82
2022/04/06 11:20:06;;;;;;;8.18;2.60;;;;;;;9.04;82.69;100089.91;5052300;28;20120;-82
2022/04/06 11:22:32;;;;;;;;;;;;;;;9.04;82.37;100068.78;5052664;28;20055;-83
2022/04/06 11:24:59;;;;;;;11.32;2.60;;;;;;;9.03;81.38;100061.78;5052315;28;20323;-82
2022/04/06 11:27:30;;;;;;;13.32;2.72;;;;;;;9.06;81.30;100071.38;5041978;28;20646;-82
2022/04/06 11:30:12;;;;;;;6.63;2.45;;;;;;;9.06;81.08;100056.41;5015890;28;20108;-81
2022/04/06 11:32:38;;;;;;;8.35;2.67;;;;;;;9.08;81.59;100064.28;5032060;28;20037;-81
2022/04/06 11:35:06;;;;;;;8.20;2.97;;;;;;;9.11;80.65;100058.91;5015526;28;20497;-80
2022/04/06 11:37:42;;;;;;;6.80;2.30;;;;;;;9.10;81.13;100057.16;5033157;28;20044;-81